Time;durP1;ratioP1;P1;durP2;ratioP2;P2;SDS_P1;SDS_P2;PMS_P1;PMS_P2;Temp;Humidity;BMP_temperature;BMP_pressure;BME280_temperature;BME280_humidity;BME280_pressure;Samples;Min_cycle;Max_cycle;Signal;HPM_P1;HPM_P2
2022/11/16 00:01:24;;;;;;;27.83;14.53;;;;;;;15.88;100.00;99684.91;4990460;28;20039;-61
2022/11/16 00:03:51;;;;;;;27.47;15.57;;;;;;;15.91;100.00;99679.03;4989592;28;20283;-61
2022/11/16 00:06:18;;;;;;;28.57;14.37;;;;;;;15.98;100.00;99680.69;4991410;28;20344;-61
2022/11/16 00:09:32;;;;;;;33.07;15.30;;;;;;;16.17;100.00;99687.28;4991227;28;20273;-61
2022/11/16 00:11:33;;;;;;;28.17;15.27;;;;;;;16.25;100.00;99680.53;4973017;28;20295;-61
2022/11/16 00:13:59;;;;;;;23.77;14.23;;;;;;;16.90;100.00;99676.78;4991607;28;20261;-61
2022/11/16 00:16:24;;;;;;;28.43;15.60;;;;;;;16.78;100.00;99680.50;4991540;28;20272;-61
2022/11/16 00:18:56;;;;;;;26.90;15.52;;;;;;;17.31;100.00;99684.16;4988077;28;20037;-61
2022/11/16 00:21:23;;;;;;;27.33;14.80;;;;;;;17.70;100.00;99688.22;4987443;28;20049;-61
2022/11/16 00:23:49;;;;;;;29.70;16.87;;;;;;;16.29;100.00;99676.28;4985077;28;20272;-60
2022/11/16 00:26:14;;;;;;;24.23;15.30;;;;;;;16.27;100.00;99672.19;4999896;28;20280;-63
2022/11/16 00:28:40;;;;;;;25.80;15.53;;;;;;;16.17;100.00;99676.47;4988916;28;20273;-61
2022/11/16 00:31:06;;;;;;;;;;;;;;;15.92;100.00;99674.44;4990174;28;20035;-61
2022/11/16 00:33:33;;;;;;;39.63;15.93;;;;;;;15.97;100.00;99677.16;4990814;28;19954;-62
2022/11/16 00:36:04;;;;;;;29.77;17.37;;;;;;;16.30;100.00;99674.38;4974395;28;20094;-62
2022/11/16 00:38:30;;;;;;;28.73;15.00;;;;;;;16.39;100.00;99678.22;4968396;28;20269;-61
2022/11/16 00:40:56;;;;;;;35.72;16.90;;;;;;;16.28;100.00;99671.13;4988805;28;20270;-60
2022/11/16 00:43:22;;;;;;;29.13;16.13;;;;;;;16.39;100.00;99656.63;4982139;28;20109;-60
2022/11/16 00:45:48;;;;;;;25.60;16.35;;;;;;;16.20;100.00;99654.38;4989363;28;20272;-59
2022/11/16 00:48:13;;;;;;;26.27;15.80;;;;;;;16.32;100.00;99667.66;4991271;28;20046;-60
2022/11/16 00:50:39;;;;;;;32.10;17.20;;;;;;;16.27;100.00;99659.53;4991049;28;20287;-60
2022/11/16 00:53:06;;;;;;;26.27;15.97;;;;;;;16.28;100.00;99665.72;5007724;28;20285;-60
2022/11/16 00:55:33;;;;;;;30.13;15.98;;;;;;;16.32;100.00;99675.75;4986213;28;20280;-61
2022/11/16 00:58:00;;;;;;;29.77;16.40;;;;;;;16.42;100.00;99672.28;4987632;28;20041;-60
2022/11/16 01:00:25;;;;;;;29.02;16.13;;;;;;;16.36;100.00;99675.22;5016407;28;20309;-60
2022/11/16 01:02:53;;;;;;;41.30;15.70;;;;;;;17.40;100.00;99673.63;4988484;28;20038;-61
2022/11/16 01:05:20;;;;;;;26.67;15.23;;;;;;;16.54;100.00;99663.16;5010865;28;20035;-61
2022/11/16 01:07:46;;;;;;;28.47;16.03;;;;;;;16.82;100.00;99670.00;4976149;28;20272;-61
2022/11/16 01:10:14;;;;;;;32.27;16.17;;;;;;;16.64;100.00;99668.59;4985935;28;20364;-60
2022/11/16 01:12:41;;;;;;;23.27;14.87;;;;;;;16.53;100.00;99656.13;4985904;28;20047;-61
2022/11/16 01:15:08;;;;;;;23.80;15.27;;;;;;;16.53;100.00;99658.81;4998952;28;20351;-62
2022/11/16 01:17:35;;;;;;;32.43;14.93;;;;;;;16.47;100.00;99649.88;4994081;28;20032;-62
2022/11/16 01:20:01;;;;;;;28.37;15.13;;;;;;;16.63;100.00;99635.38;4994815;28;20265;-61
2022/11/16 01:22:27;;;;;;;27.25;16.02;;;;;;;16.73;100.00;99639.19;4992612;28;20298;-62
2022/11/16 01:24:52;;;;;;;23.07;13.83;;;;;;;16.46;100.00;99632.06;4992983;28;20066;-61
2022/11/16 01:27:19;;;;;;;28.80;15.77;;;;;;;17.08;100.00;99634.16;4996959;28;20034;-61
2022/11/16 01:29:44;;;;;;;26.80;15.50;;;;;;;16.50;100.00;99638.59;4993108;28;20053;-61
2022/11/16 01:32:10;;;;;;;24.50;15.60;;;;;;;16.89;100.00;99643.53;5020239;28;20103;-62
2022/11/16 01:34:36;;;;;;;28.33;16.02;;;;;;;16.32;100.00;99640.69;4988675;28;20057;-62
2022/11/16 01:37:18;;;;;;;30.90;15.27;;;;;;;16.52;100.00;99643.72;4985371;28;20027;-61
2022/11/16 01:39:43;;;;;;;;;;;;;;;16.85;100.00;99639.75;4989333;28;20273;-63
2022/11/16 01:42:25;;;;;;;36.83;16.23;;;;;;;16.50;100.00;99641.28;4988888;28;19936;-61
2022/11/16 01:44:58;;;;;;;31.77;15.13;;;;;;;16.38;100.00;99641.50;5056578;28;20501;-62
2022/11/16 01:47:24;;;;;;;25.67;15.67;;;;;;;16.44;100.00;99643.16;4989171;28;20295;-61
2022/11/16 01:49:57;;;;;;;27.17;15.17;;;;;;;16.56;100.00;99647.50;4999571;28;20286;-62
2022/11/16 01:52:31;;;;;;;28.87;17.17;;;;;;;16.60;100.00;99632.38;4990783;28;20257;-61
2022/11/16 01:54:58;;;;;;;30.93;16.77;;;;;;;16.97;100.00;99638.72;5006215;28;20301;-62
2022/11/16 01:57:31;;;;;;;26.77;15.80;;;;;;;16.92;100.00;99624.09;5002413;28;20295;-62
2022/11/16 02:00:06;;;;;;;28.43;16.20;;;;;;;16.37;100.00;99622.88;5000818;28;20272;-61
2022/11/16 02:02:55;;;;;;;29.67;17.00;;;;;;;16.25;100.00;99613.09;4987276;28;20272;-62
2022/11/16 02:05:53;;;;;;;29.37;17.37;;;;;;;16.78;100.00;99623.81;4996031;28;20309;-61
2022/11/16 02:11:57;;;;;;;26.33;15.43;;;;;;;16.96;100.00;99624.38;4987660;28;20313;-61
2022/11/16 02:15:03;;;;;;;28.27;16.70;;;;;;;16.91;100.00;99618.97;5030087;28;20264;-62
2022/11/16 02:18:02;;;;;;;28.67;16.77;;;;;;;16.62;100.00;99622.97;4996640;28;20051;-61
2022/11/16 02:20:41;;;;;;;30.67;15.55;;;;;;;16.71;100.00;99620.56;5009997;28;20364;-61
2022/11/16 02:23:25;;;;;;;30.47;16.63;;;;;;;17.09;100.00;99630.38;5000726;28;20043;-61
2022/11/16 02:26:13;;;;;;;30.00;17.37;;;;;;;17.48;100.00;99624.44;5000774;28;20268;-62
2022/11/16 02:28:45;;;;;;;25.87;15.77;;;;;;;16.95;100.00;99620.06;4993956;28;20285;-62
2022/11/16 02:31:18;;;;;;;33.50;18.07;;;;;;;16.94;100.00;99623.84;4991066;28;20300;-61
2022/11/16 02:33:47;;;;;;;30.00;16.87;;;;;;;16.50;100.00;99619.69;4989172;28;20340;-61
2022/11/16 02:36:19;;;;;;;30.13;17.83;;;;;;;17.58;100.00;99629.84;5001146;28;20284;-62
2022/11/16 02:38:51;;;;;;;30.83;16.93;;;;;;;17.42;100.00;99622.81;4990680;28;20261;-62
2022/11/16 02:41:22;;;;;;;31.67;16.70;;;;;;;17.49;100.00;99615.25;4991908;28;20287;-62
2022/11/16 02:43:59;;;;;;;33.00;17.50;;;;;;;16.93;100.00;99619.53;4985718;28;20346;-61
2022/11/16 02:46:30;;;;;;;30.05;17.48;;;;;;;16.89;100.00;99616.53;4993676;28;20273;-62
2022/11/16 02:48:59;;;;;;;35.83;17.53;;;;;;;16.62;100.00;99616.78;5011245;28;20065;-62
2022/11/16 02:51:27;;;;;;;29.93;16.47;;;;;;;16.78;100.00;99623.81;4988021;28;20288;-61
2022/11/16 02:54:02;;;;;;;33.73;17.27;;;;;;;16.99;100.00;99614.97;4985871;28;20302;-61
2022/11/16 02:56:41;;;;;;;28.40;17.10;;;;;;;16.92;100.00;99615.19;4976025;28;21924;-61
2022/11/16 02:59:08;;;;;;;40.63;17.08;;;;;;;16.84;100.00;99619.22;4949431;29;20270;-61
2022/11/16 03:01:39;;;;;;;47.00;17.20;;;;;;;16.79;100.00;99613.84;4949614;29;20043;-60
2022/11/16 03:04:13;;;;;;;38.83;15.97;;;;;;;16.87;100.00;99609.81;4950947;29;20274;-61
2022/11/16 03:06:42;;;;;;;33.60;17.00;;;;;;;16.53;100.00;99611.06;4948453;29;20345;-61
2022/11/16 03:09:17;;;;;;;33.40;16.63;;;;;;;16.59;100.00;99615.41;4951086;29;20285;-61
2022/11/16 03:11:58;;;;;;;38.73;16.50;;;;;;;16.83;100.00;99620.31;4948411;29;20350;-63
2022/11/16 03:14:43;;;;;;;34.27;17.83;;;;;;;16.77;100.00;99619.47;4934656;28;20301;-61
2022/11/16 03:17:19;;;;;;;30.03;16.63;;;;;;;16.56;100.00;99620.50;4934008;29;20258;-61
2022/11/16 03:19:57;;;;;;;32.73;16.60;;;;;;;16.75;100.00;99628.94;4950667;28;20281;-61
2022/11/16 03:22:33;;;;;;;30.90;16.60;;;;;;;16.87;100.00;99634.09;5029456;28;20293;-61
2022/11/16 03:25:00;;;;;;;;;;;;;;;16.89;100.00;99637.34;4950757;28;20270;-61
2022/11/16 03:27:40;;;;;;;24.38;11.35;;;;;;;16.55;100.00;99632.38;4950636;28;19942;-61
2022/11/16 03:30:11;;;;;;;28.40;14.20;;;;;;;16.96;100.00;99631.69;4949298;29;20051;-62
2022/11/16 03:32:48;;;;;;;27.60;12.40;;;;;;;16.58;100.00;99615.66;4948931;29;20336;-61
2022/11/16 03:35:22;;;;;;;22.10;11.10;;;;;;;16.36;100.00;99624.75;4949403;29;20293;-61
2022/11/16 03:37:51;;;;;;;21.87;11.40;;;;;;;16.18;100.00;99629.56;4950109;29;20302;-61
2022/11/16 03:40:21;;;;;;;24.00;10.70;;;;;;;16.56;100.00;99624.03;4948483;29;20258;-61
2022/11/16 03:42:49;;;;;;;23.17;11.63;;;;;;;16.73;100.00;99621.09;4950623;29;20293;-62
2022/11/16 03:45:17;;;;;;;16.03;8.80;;;;;;;16.63;100.00;99635.38;4948736;29;20270;-62
2022/11/16 03:47:44;;;;;;;19.87;9.30;;;;;;;16.63;100.00;99634.59;4951241;29;20274;-61
2022/11/16 03:50:10;;;;;;;;;;;;;;;16.80;100.00;99637.06;4949730;28;20282;-61
2022/11/16 03:52:37;;;;;;;22.30;8.82;;;;;;;16.52;100.00;99639.13;4950217;28;19981;-61
2022/11/16 03:55:04;;;;;;;18.10;9.05;;;;;;;16.33;100.00;99630.69;4949826;28;20066;-61
2022/11/16 03:57:29;;;;;;;24.27;8.82;;;;;;;16.22;100.00;99637.13;4968972;28;20058;-61
2022/11/16 03:59:58;;;;;;;24.43;9.00;;;;;;;16.38;100.00;99627.19;4969250;29;20038;-61
2022/11/16 04:02:24;;;;;;;33.03;12.48;;;;;;;16.40;100.00;99642.06;4968831;28;20277;-62
2022/11/16 04:24:31;;;;;;;20.57;9.10;;;;;;;16.70;100.00;99655.91;4965383;28;20280;-62
2022/11/16 04:29:47;;;;;;;19.47;9.43;;;;;;;15.99;100.00;99652.63;4996261;28;20293;-61
2022/11/16 04:37:51;;;;;;;18.57;9.73;;;;;;;16.67;100.00;99653.75;4973469;28;20293;-61
2022/11/16 04:40:28;;;;;;;23.70;10.70;;;;;;;16.21;100.00;99655.16;4970986;28;20274;-61
2022/11/16 04:42:59;;;;;;;17.73;10.30;;;;;;;15.74;100.00;99654.06;4982977;28;20266;-60
2022/11/16 04:48:19;;;;;;;28.20;13.00;;;;;;;15.70;100.00;99647.56;4970506;28;20139;-59
2022/11/16 04:50:45;;;;;;;33.58;13.68;;;;;;;15.65;100.00;99648.34;4968994;28;20050;-60
2022/11/16 04:53:12;;;;;;;27.10;14.83;;;;;;;15.72;100.00;99650.81;4972987;28;20078;-61
2022/11/16 04:55:44;;;;;;;35.10;16.80;;;;;;;15.74;100.00;99664.84;4991466;28;20261;-60
2022/11/16 04:58:10;;;;;;;34.33;17.05;;;;;;;15.42;100.00;99676.44;4980474;28;20277;-61
2022/11/16 05:00:37;;;;;;;35.67;18.90;;;;;;;15.52;100.00;99676.53;4991947;28;20030;-61
2022/11/16 05:03:04;;;;;;;40.73;20.80;;;;;;;15.57;100.00;99668.50;4992480;28;20288;-61
2022/11/16 05:05:30;;;;;;;37.60;20.90;;;;;;;15.51;100.00;99676.78;5009959;28;20035;-61
2022/11/16 05:07:57;;;;;;;53.57;23.10;;;;;;;15.58;100.00;99677.41;4999125;28;20337;-60
2022/11/16 05:10:26;;;;;;;54.90;25.00;;;;;;;15.58;100.00;99686.28;4999893;28;20339;-61
2022/11/16 05:12:53;;;;;;;;;;;;;;;15.59;100.00;99689.81;4998977;28;20692;-61
2022/11/16 05:15:20;;;;;;;62.40;27.40;;;;;;;15.34;100.00;99701.97;5003539;28;19921;-60
2022/11/16 05:17:46;;;;;;;;;;;;;;;15.67;100.00;99693.88;5008891;28;20074;-64
2022/11/16 05:23:03;;;;;;;57.70;26.93;;;;;;;15.39;100.00;99703.88;5001775;28;20296;-61
2022/11/16 05:25:32;;;;;;;60.23;26.87;;;;;;;15.38;100.00;99696.88;5002912;28;20296;-61
2022/11/16 05:27:59;;;;;;;60.17;27.08;;;;;;;15.31;100.00;99708.69;5001336;28;20269;-61
2022/11/16 05:30:25;;;;;;;62.35;27.92;;;;;;;15.37;100.00;99706.84;4989604;28;20031;-62
2022/11/16 05:32:50;;;;;;;60.10;25.75;;;;;;;15.23;100.00;99701.06;4979051;28;20073;-62
2022/11/16 05:35:18;;;;;;;61.27;26.77;;;;;;;15.09;100.00;99705.22;5017156;28;20045;-61
2022/11/16 05:37:45;;;;;;;;;;;;;;;15.11;100.00;99711.16;5014743;28;20270;-61
2022/11/16 05:40:11;;;;;;;45.40;21.07;;;;;;;15.23;100.00;99711.00;4989494;28;19960;-62
2022/11/16 05:42:44;;;;;;;34.57;17.80;;;;;;;14.92;100.00;99714.19;5014435;28;20057;-61
2022/11/16 05:45:10;;;;;;;37.60;15.25;;;;;;;14.97;100.00;99708.84;4999230;28;20281;-61
2022/11/16 05:47:36;;;;;;;26.50;13.45;;;;;;;14.83;100.00;99718.41;5020188;28;20170;-62
2022/11/16 05:50:02;;;;;;;25.55;12.43;;;;;;;15.02;100.00;99710.81;4993448;28;20050;-60
2022/11/16 05:52:34;;;;;;;26.70;13.23;;;;;;;15.22;100.00;99714.78;4998818;28;20110;-62
2022/11/16 05:55:04;;;;;;;23.67;12.53;;;;;;;15.08;100.00;99714.38;4996629;28;20290;-61
2022/11/16 05:57:35;;;;;;;34.57;12.87;;;;;;;15.00;100.00;99703.00;5011432;28;20281;-61
2022/11/16 06:00:02;;;;;;;24.53;11.97;;;;;;;14.91;100.00;99696.41;4971912;28;20261;-61
2022/11/16 06:02:31;;;;;;;36.33;13.70;;;;;;;15.08;100.00;99711.69;4970163;28;20274;-61
2022/11/16 06:04:58;;;;;;;32.30;16.63;;;;;;;14.81;100.00;99699.00;4966129;28;20280;-62
2022/11/16 06:07:25;;;;;;;39.58;16.92;;;;;;;14.84;100.00;99698.50;4966552;29;20274;-62
2022/11/16 06:09:50;;;;;;;53.80;19.30;;;;;;;14.75;100.00;99701.63;4963723;28;20035;-61
2022/11/16 06:12:19;;;;;;;43.47;17.47;;;;;;;14.91;100.00;99702.63;4968882;29;20289;-60
2022/11/16 06:14:46;;;;;;;40.17;15.30;;;;;;;14.63;100.00;99704.41;4962405;28;20285;-61
2022/11/16 06:17:13;;;;;;;32.67;14.60;;;;;;;14.58;100.00;99703.53;4968600;28;20289;-61
2022/11/16 06:19:40;;;;;;;38.33;14.73;;;;;;;14.43;100.00;99721.09;4966427;28;20273;-61
2022/11/16 06:22:07;;;;;;;49.03;15.50;;;;;;;14.42;100.00;99718.69;4973292;28;20288;-61
2022/11/16 06:24:33;;;;;;;;;;;;;;;14.46;100.00;99720.59;4968928;28;20281;-61
2022/11/16 06:26:59;;;;;;;47.33;17.33;;;;;;;14.43;100.00;99731.06;4972400;29;19914;-60
2022/11/16 06:29:24;;;;;;;36.83;18.57;;;;;;;14.23;100.00;99723.50;4969850;29;20061;-62
2022/11/16 06:31:51;;;;;;;31.70;13.03;;;;;;;14.00;100.00;99742.28;4968985;29;20054;-61
2022/11/16 06:34:17;;;;;;;27.63;9.23;;;;;;;14.16;100.00;99724.50;4967450;28;20269;-61
2022/11/16 06:36:43;;;;;;;21.77;8.87;;;;;;;14.02;100.00;99724.03;4967789;28;20047;-61
2022/11/16 06:39:11;;;;;;;17.77;8.15;;;;;;;14.08;100.00;99729.47;4970299;28;20265;-61
2022/11/16 06:41:37;;;;;;;21.70;7.63;;;;;;;14.13;100.00;99730.38;4970694;28;20092;-61
2022/11/16 06:44:03;;;;;;;33.58;9.93;;;;;;;14.01;100.00;99733.16;4967151;28;20285;-61
2022/11/16 06:46:33;;;;;;;39.67;14.33;;;;;;;14.24;100.00;99738.56;4964027;28;20502;-60
2022/11/16 06:49:01;;;;;;;47.43;17.20;;;;;;;14.19;100.00;99734.75;4967588;28;20265;-62
2022/11/16 06:51:27;;;;;;;34.95;13.23;;;;;;;13.81;100.00;99746.25;4949106;29;20290;-61
2022/11/16 06:53:53;;;;;;;46.15;16.17;;;;;;;14.04;100.00;99745.28;5002562;28;20056;-61
2022/11/16 06:56:20;;;;;;;48.60;17.85;;;;;;;13.85;100.00;99758.16;5055699;28;20559;-61
2022/11/16 06:58:51;;;;;;;36.50;15.07;;;;;;;13.98;100.00;99749.78;5049020;28;20021;-61
2022/11/16 07:01:16;;;;;;;30.77;11.50;;;;;;;13.91;100.00;99754.47;5051213;28;20277;-61
2022/11/16 07:03:44;;;;;;;22.93;7.20;;;;;;;13.82;100.00;99756.75;5057196;28;20108;-61
2022/11/16 07:06:12;;;;;;;;;;;;;;;13.75;100.00;99759.63;5059470;28;20284;-61
2022/11/16 07:08:39;;;;;;;20.30;6.57;;;;;;;13.97;100.00;99766.97;5058269;28;19917;-61
2022/11/16 07:11:06;;;;;;;19.40;5.90;;;;;;;13.47;100.00;99760.47;5053972;28;20286;-61
2022/11/16 07:13:34;;;;;;;20.30;5.70;;;;;;;13.65;100.00;99764.81;5058590;28;20041;-61
2022/11/16 07:16:01;;;;;;;13.07;5.50;;;;;;;13.77;100.00;99762.88;5059545;28;20267;-62
2022/11/16 07:18:27;;;;;;;10.67;5.20;;;;;;;13.48;100.00;99757.53;5055079;28;20286;-60
2022/11/16 07:20:53;;;;;;;10.45;5.00;;;;;;;13.39;100.00;99766.22;5056893;28;20293;-62
2022/11/16 07:23:19;;;;;;;16.02;5.22;;;;;;;13.58;100.00;99769.53;5053950;28;20045;-61
2022/11/16 07:25:46;;;;;;;12.07;5.20;;;;;;;13.32;100.00;99775.19;5052722;28;20037;-61
2022/11/16 07:28:11;;;;;;;16.20;4.82;;;;;;;13.32;100.00;99775.19;5046876;28;20033;-61
2022/11/16 07:30:37;;;;;;;18.73;5.00;;;;;;;13.57;100.00;99774.06;5035557;28;20034;-61
2022/11/16 07:33:10;;;;;;;15.97;5.40;;;;;;;13.56;100.00;99783.19;5054894;28;20036;-62
2022/11/16 07:36:14;;;;;;;15.20;4.93;;;;;;;13.57;100.00;99784.00;5019652;28;20283;-60
2022/11/16 07:38:40;;;;;;;20.73;5.97;;;;;;;13.52;100.00;99787.41;5043994;28;20286;-62
2022/11/16 07:41:12;;;;;;;13.43;5.33;;;;;;;14.02;100.00;99801.16;5053855;28;20832;-61
2022/11/16 07:43:47;;;;;;;19.13;5.50;;;;;;;14.20;100.00;99786.69;5055139;28;20289;-61
2022/11/16 07:46:20;;;;;;;12.93;5.30;;;;;;;13.45;100.00;99795.63;5057177;28;20266;-60
2022/11/16 07:48:46;;;;;;;14.07;5.53;;;;;;;13.52;100.00;99792.78;5049438;28;20323;-61
2022/11/16 07:51:16;;;;;;;17.00;6.00;;;;;;;13.40;100.00;99805.44;5052458;28;20299;-61
2022/11/16 07:53:54;;;;;;;16.57;5.37;;;;;;;13.47;100.00;99811.50;5032806;28;20340;-61
2022/11/16 07:56:20;;;;;;;12.77;5.83;;;;;;;13.58;100.00;99820.56;4961088;28;20277;-60
2022/11/16 07:58:48;;;;;;;15.97;5.93;;;;;;;13.90;100.00;99815.50;4967327;28;20273;-61
2022/11/16 08:01:15;;;;;;;15.55;5.30;;;;;;;13.99;100.00;99807.03;4961644;28;20338;-61
2022/11/16 08:03:44;;;;;;;24.57;5.73;;;;;;;13.89;100.00;99813.03;4962960;28;20051;-61
2022/11/16 08:06:27;;;;;;;19.53;6.00;;;;;;;13.66;100.00;99811.31;4952240;28;20287;-61
2022/11/16 08:08:54;;;;;;;17.90;5.90;;;;;;;13.93;100.00;99824.13;4971814;28;20284;-61
2022/11/16 08:11:20;;;;;;;16.48;6.10;;;;;;;13.64;100.00;99822.28;4975305;28;20289;-60
2022/11/16 08:13:45;;;;;;;15.90;6.15;;;;;;;13.90;100.00;99831.63;4972145;29;20066;-60
2022/11/16 08:16:17;;;;;;;17.90;7.30;;;;;;;13.66;100.00;99840.84;4972731;28;20042;-60
2022/11/16 08:18:45;;;;;;;13.83;6.50;;;;;;;14.17;100.00;99830.16;4974437;28;20033;-62
2022/11/16 08:21:14;;;;;;;19.90;7.80;;;;;;;13.96;100.00;99826.31;4973181;28;21787;-61
2022/11/16 08:23:43;;;;;;;18.83;7.83;;;;;;;14.17;100.00;99832.84;4972360;28;20282;-62
2022/11/16 08:26:14;;;;;;;16.20;7.13;;;;;;;13.90;100.00;99828.09;4969351;28;20307;-61
2022/11/16 08:28:43;;;;;;;26.33;6.30;;;;;;;13.85;100.00;99831.53;4975715;28;20270;-60
2022/11/16 08:31:15;;;;;;;18.20;6.37;;;;;;;14.27;100.00;99829.50;4972902;28;20299;-61
2022/11/16 08:33:43;;;;;;;26.10;7.67;;;;;;;13.96;100.00;99829.84;4967798;28;20270;-61
2022/11/16 08:36:15;;;;;;;19.60;7.20;;;;;;;13.83;100.00;99825.56;4972280;28;20281;-61
2022/11/16 08:38:44;;;;;;;18.13;6.50;;;;;;;13.93;100.00;99834.88;4970326;28;20287;-60
2022/11/16 08:41:10;;;;;;;23.43;6.67;;;;;;;14.06;100.00;99834.56;4967518;28;20273;-60
2022/11/16 08:43:41;;;;;;;20.13;6.43;;;;;;;14.24;100.00;99844.28;4972961;29;20262;-61
2022/11/16 08:46:09;;;;;;;21.37;6.30;;;;;;;14.25;100.00;99845.06;4975069;28;20335;-61
2022/11/16 08:48:36;;;;;;;17.17;6.73;;;;;;;14.73;100.00;99849.06;4973305;28;20276;-61
2022/11/16 08:51:05;;;;;;;14.33;6.33;;;;;;;15.30;100.00;99847.13;4996804;28;20291;-61
2022/11/16 08:53:30;;;;;;;21.00;6.63;;;;;;;16.06;100.00;99841.97;4977052;28;20285;-61
2022/11/16 08:56:01;;;;;;;21.83;5.40;;;;;;;16.43;100.00;99853.88;4993374;28;20281;-61
2022/11/16 08:58:27;;;;;;;15.97;4.87;;;;;;;16.87;100.00;99842.81;4971502;28;20031;-62
2022/11/16 09:00:53;;;;;;;13.65;3.20;;;;;;;17.16;100.00;99853.22;4989432;28;20264;-61
2022/11/16 09:03:18;;;;;;;12.77;3.37;;;;;;;17.17;100.00;99859.47;4988118;28;20035;-60
2022/11/16 09:05:45;;;;;;;10.23;2.50;;;;;;;17.55;100.00;99859.31;4993074;28;20382;-61
2022/11/16 09:08:11;;;;;;;14.83;3.93;;;;;;;17.77;100.00;99856.41;4994979;28;20273;-61
2022/11/16 09:10:36;;;;;;;9.70;2.47;;;;;;;18.13;100.00;99861.09;4992598;28;20335;-61
2022/11/16 09:13:02;;;;;;;11.25;3.55;;;;;;;18.16;100.00;99864.03;4994641;28;20049;-60
2022/11/16 09:15:28;;;;;;;18.58;4.20;;;;;;;18.36;100.00;99859.72;4993325;28;20046;-61
2022/11/16 09:17:54;;;;;;;10.10;3.03;;;;;;;18.29;100.00;99868.09;4991253;28;20043;-62
2022/11/16 09:20:20;;;;;;;8.50;2.47;;;;;;;18.75;100.00;99853.72;4986575;28;20024;-61
2022/11/16 09:22:45;;;;;;;14.50;2.88;;;;;;;18.19;100.00;99868.91;4987217;28;20054;-61
2022/11/16 09:25:11;;;;;;;11.05;3.08;;;;;;;18.63;100.00;99855.88;4988696;28;20053;-63
2022/11/16 09:27:36;;;;;;;9.10;3.00;;;;;;;19.03;100.00;99864.22;4988863;28;20193;-62
2022/11/16 09:30:03;;;;;;;15.52;2.95;;;;;;;18.74;100.00;99865.63;4990577;28;20054;-61
2022/11/16 09:32:29;;;;;;;8.03;2.50;;;;;;;18.87;100.00;99869.66;4991985;28;20043;-62
2022/11/16 09:34:54;;;;;;;7.83;2.43;;;;;;;18.59;100.00;99866.47;4976472;28;20041;-61
2022/11/16 09:37:19;;;;;;;13.93;3.47;;;;;;;18.44;100.00;99864.56;4990913;28;20274;-62
2022/11/16 09:39:45;;;;;;;13.68;3.42;;;;;;;18.47;100.00;99866.75;4988065;28;20081;-61
2022/11/16 09:42:25;;;;;;;13.20;3.30;;;;;;;19.12;100.00;99883.44;4986875;28;20035;-62
2022/11/16 09:45:07;;;;;;;12.43;3.40;;;;;;;18.82;100.00;99888.66;4988920;28;20064;-61
2022/11/16 09:47:50;;;;;;;11.40;2.80;;;;;;;18.61;100.00;99879.72;4986009;28;20035;-61
2022/11/16 09:50:42;;;;;;;20.30;3.60;;;;;;;19.68;100.00;99879.66;4989464;28;20102;-61
2022/11/16 09:53:15;;;;;;;11.83;3.20;;;;;;;19.74;100.00;99870.41;4986714;28;20031;-62
2022/11/16 09:55:49;;;;;;;14.43;3.03;;;;;;;19.52;100.00;99880.84;4985142;28;20043;-61
2022/11/16 09:58:42;;;;;;;9.90;2.90;;;;;;;19.72;100.00;99886.16;4984787;28;20047;-61
2022/11/16 10:01:31;;;;;;;9.73;2.50;;;;;;;20.46;100.00;99884.56;4985829;28;20035;-62
2022/11/16 10:04:11;;;;;;;12.63;2.87;;;;;;;20.15;100.00;99872.06;4990571;28;20043;-63
2022/11/16 10:07:05;;;;;;;9.97;2.10;;;;;;;20.42;100.00;99887.03;4990314;28;20034;-62
2022/11/16 10:09:30;;;;;;;8.87;2.97;;;;;;;20.61;100.00;99873.53;4989444;28;20056;-64
2022/11/16 10:12:06;;;;;;;12.07;2.80;;;;;;;20.26;100.00;99877.38;4992734;28;20043;-62
2022/11/16 10:15:06;;;;;;;11.07;2.63;;;;;;;20.44;100.00;99890.28;4990104;28;20045;-62
2022/11/16 10:17:58;;;;;;;10.17;2.77;;;;;;;21.14;100.00;99874.66;4984634;28;20102;-63
2022/11/16 10:20:41;;;;;;;16.90;2.77;;;;;;;21.60;100.00;99877.91;4987940;28;20031;-62
2022/11/16 10:23:26;;;;;;;11.50;2.73;;;;;;;21.50;100.00;99881.56;4986756;28;20038;-63
2022/11/16 10:25:57;;;;;;;11.00;2.00;;;;;;;21.99;100.00;99881.44;4984023;28;20023;-63
2022/11/16 10:28:31;;;;;;;9.67;2.30;;;;;;;22.46;100.00;99885.06;4987856;28;20030;-63
2022/11/16 10:31:37;;;;;;;5.57;2.53;;;;;;;21.61;100.00;99893.91;4985682;28;20065;-63
2022/11/16 10:34:07;;;;;;;6.18;2.15;;;;;;;22.10;97.29;99893.00;4989354;28;20115;-63
2022/11/16 10:36:36;;;;;;;13.27;2.70;;;;;;;22.29;95.37;99895.66;4990283;28;20034;-63
2022/11/16 10:39:02;;;;;;;11.13;2.50;;;;;;;21.93;97.15;99902.47;4981903;28;20031;-63
2022/11/16 10:41:32;;;;;;;;;;;;;;;22.46;96.76;99889.66;4992377;28;20034;-65
2022/11/16 10:43:58;;;;;;;8.13;2.47;;;;;;;21.93;96.22;99886.16;4988562;28;19914;-62
2022/11/16 10:46:27;;;;;;;;;;;;;;;22.48;93.70;99888.28;4983921;28;20027;-63
2022/11/16 10:49:35;;;;;;;11.70;2.07;;;;;;;22.84;88.00;99892.28;4988925;28;19915;-63
2022/11/16 10:52:01;;;;;;;5.63;2.05;;;;;;;22.62;88.59;99893.78;4983592;28;20046;-63
2022/11/16 10:54:26;;;;;;;5.47;1.95;;;;;;;22.41;87.10;99889.75;4980089;28;20055;-63
2022/11/16 10:57:05;;;;;;;7.72;1.85;;;;;;;21.86;89.66;99891.16;4963723;28;20042;-62
2022/11/16 10:59:42;;;;;;;9.37;2.37;;;;;;;22.25;90.04;99883.75;4966564;29;20039;-64
2022/11/16 11:02:33;;;;;;;7.00;1.77;;;;;;;22.62;91.13;99882.09;4971562;28;20057;-63
2022/11/16 11:05:00;;;;;;;7.47;2.10;;;;;;;22.67;86.47;99881.97;4969690;29;20051;-63
2022/11/16 11:07:32;;;;;;;5.77;2.00;;;;;;;22.99;86.51;99879.50;4968714;28;20059;-63
2022/11/16 11:09:58;;;;;;;9.93;2.60;;;;;;;23.73;81.95;99885.88;4969255;28;20038;-63
2022/11/16 11:12:37;;;;;;;;;;;;;;;24.19;78.04;99867.63;4967475;28;20050;-63
2022/11/16 11:15:21;;;;;;;6.37;1.90;;;;;;;23.81;78.73;99873.41;4964802;28;19919;-63
2022/11/16 11:17:49;;;;;;;5.90;1.83;;;;;;;23.87;77.43;99859.34;4963736;28;20063;-63
2022/11/16 11:20:14;;;;;;;11.07;1.87;;;;;;;24.24;76.05;99851.13;4964734;28;20015;-63
2022/11/16 11:22:59;;;;;;;13.00;1.83;;;;;;;24.95;71.89;99867.88;4972026;28;20051;-64
2022/11/16 11:25:28;;;;;;;7.93;1.80;;;;;;;24.70;72.38;99851.84;4969130;28;20033;-64
2022/11/16 11:28:19;;;;;;;3.83;1.40;;;;;;;24.56;70.52;99856.59;4961758;28;20098;-63
2022/11/16 11:30:59;;;;;;;6.70;1.47;;;;;;;23.98;73.20;99851.72;4961936;28;20036;-65
2022/11/16 11:33:28;;;;;;;7.30;2.43;;;;;;;24.19;74.66;99856.72;4966748;28;20042;-65
2022/11/16 11:36:04;;;;;;;10.87;1.90;;;;;;;24.24;74.22;99861.25;4968050;28;20094;-63
2022/11/16 11:38:32;;;;;;;9.15;2.13;;;;;;;24.36;73.70;99861.47;4962702;29;20069;-64
2022/11/16 11:41:00;;;;;;;12.07;1.87;;;;;;;22.99;77.72;99858.47;4969771;29;20039;-62
2022/11/16 11:43:28;;;;;;;6.93;1.97;;;;;;;21.36;90.64;99857.00;4970786;28;20037;-63
2022/11/16 11:46:02;;;;;;;10.00;1.83;;;;;;;21.77;89.22;99848.28;4970119;29;20031;-63
2022/11/16 11:48:40;;;;;;;10.20;2.27;;;;;;;20.99;98.18;99851.19;4966776;28;20043;-62
2022/11/16 11:51:26;;;;;;;8.07;2.43;;;;;;;21.05;100.00;99843.78;4963708;28;20039;-63
2022/11/16 11:53:55;;;;;;;7.47;1.87;;;;;;;20.30;100.00;99843.19;4970943;28;20046;-62
2022/11/16 11:56:21;;;;;;;6.60;2.00;;;;;;;19.37;100.00;99851.88;4965473;28;20061;-62
2022/11/16 11:58:48;;;;;;;7.72;1.92;;;;;;;19.30;100.00;99839.44;4984798;28;20035;-63
2022/11/16 12:01:19;;;;;;;;;;;;;;;19.37;100.00;99847.28;4985322;28;20057;-63
2022/11/16 12:04:15;;;;;;;12.00;1.80;;;;;;;19.38;100.00;99837.28;4984860;28;19921;-62
2022/11/16 12:06:56;;;;;;;10.00;2.47;;;;;;;20.34;100.00;99852.38;4986361;28;20125;-62
2022/11/16 12:09:34;;;;;;;12.77;2.03;;;;;;;19.34;100.00;99848.66;4981271;28;20038;-61
2022/11/16 12:12:20;;;;;;;10.80;2.30;;;;;;;19.83;100.00;99839.97;4985206;28;20043;-63
2022/11/16 12:15:02;;;;;;;3.77;1.33;;;;;;;20.00;100.00;99843.13;4987430;28;20035;-61